sensor_id;sensor_type;location;lat;lon;timestamp;P1;durP1;ratioP1;P2;durP2;ratioP2
44750;SDS011;30477;48.224;11.470;2023-07-09T00:01:45;13.98;;;9.63;;
44750;SDS011;30477;48.224;11.470;2023-07-09T00:04:11;15.23;;;9.43;;
44750;SDS011;30477;48.224;11.470;2023-07-09T00:06:37;18.05;;;9.77;;
44750;SDS011;30477;48.224;11.470;2023-07-09T00:11:29;12.90;;;9.82;;
44750;SDS011;30477;48.224;11.470;2023-07-09T00:13:55;13.60;;;9.33;;
44750;SDS011;30477;48.224;11.470;2023-07-09T00:16:22;15.53;;;9.23;;
44750;SDS011;30477;48.224;11.470;2023-07-09T00:18:49;14.95;;;8.98;;
44750;SDS011;30477;48.224;11.470;2023-07-09T00:21:18;12.93;;;9.10;;
44750;SDS011;30477;48.224;11.470;2023-07-09T00:23:45;14.85;;;9.15;;
44750;SDS011;30477;48.224;11.470;2023-07-09T00:26:14;27.80;;;19.73;;
44750;SDS011;30477;48.224;11.470;2023-07-09T00:28:43;15.13;;;9.52;;
44750;SDS011;30477;48.224;11.470;2023-07-09T00:31:13;12.43;;;9.30;;
44750;SDS011;30477;48.224;11.470;2023-07-09T00:33:41;15.50;;;8.95;;
44750;SDS011;30477;48.224;11.470;2023-07-09T00:36:13;12.57;;;8.40;;
44750;SDS011;30477;48.224;11.470;2023-07-09T00:39:00;19.70;;;9.85;;
44750;SDS011;30477;48.224;11.470;2023-07-09T00:41:29;14.57;;;8.70;;
44750;SDS011;30477;48.224;11.470;2023-07-09T00:43:58;14.18;;;9.05;;
44750;SDS011;30477;48.224;11.470;2023-07-09T00:49:12;13.45;;;8.35;;
44750;SDS011;30477;48.224;11.470;2023-07-09T00:51:42;13.30;;;8.93;;
44750;SDS011;30477;48.224;11.470;2023-07-09T00:56:55;12.65;;;8.75;;
44750;SDS011;30477;48.224;11.470;2023-07-09T00:59:25;12.90;;;8.25;;
44750;SDS011;30477;48.224;11.470;2023-07-09T01:01:56;13.13;;;8.77;;
44750;SDS011;30477;48.224;11.470;2023-07-09T01:04:25;12.70;;;8.73;;
44750;SDS011;30477;48.224;11.470;2023-07-09T01:06:51;13.90;;;8.45;;
44750;SDS011;30477;48.224;11.470;2023-07-09T01:09:18;12.20;;;8.20;;
44750;SDS011;30477;48.224;11.470;2023-07-09T01:11:44;12.30;;;9.00;;
44750;SDS011;30477;48.224;11.470;2023-07-09T01:14:11;11.65;;;8.10;;
44750;SDS011;30477;48.224;11.470;2023-07-09T01:16:43;11.35;;;8.43;;
44750;SDS011;30477;48.224;11.470;2023-07-09T01:19:14;14.48;;;7.95;;
44750;SDS011;30477;48.224;11.470;2023-07-09T01:21:41;11.40;;;8.55;;
44750;SDS011;30477;48.224;11.470;2023-07-09T01:24:12;12.70;;;7.80;;
44750;SDS011;30477;48.224;11.470;2023-07-09T01:26:51;15.02;;;8.77;;
44750;SDS011;30477;48.224;11.470;2023-07-09T01:29:17;13.68;;;8.38;;
44750;SDS011;30477;48.224;11.470;2023-07-09T01:31:42;15.87;;;8.90;;
44750;SDS011;30477;48.224;11.470;2023-07-09T01:34:07;14.23;;;7.77;;
44750;SDS011;30477;48.224;11.470;2023-07-09T01:36:33;11.67;;;7.37;;
44750;SDS011;30477;48.224;11.470;2023-07-09T01:39:00;10.95;;;7.50;;
44750;SDS011;30477;48.224;11.470;2023-07-09T01:41:25;13.07;;;7.83;;
44750;SDS011;30477;48.224;11.470;2023-07-09T01:43:50;12.60;;;7.60;;
44750;SDS011;30477;48.224;11.470;2023-07-09T01:46:16;13.68;;;8.45;;
44750;SDS011;30477;48.224;11.470;2023-07-09T01:48:41;11.80;;;7.93;;
44750;SDS011;30477;48.224;11.470;2023-07-09T01:51:10;11.03;;;7.87;;
44750;SDS011;30477;48.224;11.470;2023-07-09T01:53:38;15.15;;;8.27;;
44750;SDS011;30477;48.224;11.470;2023-07-09T01:56:05;11.07;;;8.10;;
44750;SDS011;30477;48.224;11.470;2023-07-09T01:58:32;11.88;;;8.20;;
44750;SDS011;30477;48.224;11.470;2023-07-09T02:00:58;13.23;;;8.43;;
44750;SDS011;30477;48.224;11.470;2023-07-09T02:05:52;10.50;;;7.55;;
44750;SDS011;30477;48.224;11.470;2023-07-09T02:08:18;10.98;;;8.07;;
44750;SDS011;30477;48.224;11.470;2023-07-09T02:10:44;11.03;;;7.90;;
44750;SDS011;30477;48.224;11.470;2023-07-09T02:13:10;12.77;;;8.15;;
44750;SDS011;30477;48.224;11.470;2023-07-09T02:15:36;11.18;;;7.72;;
44750;SDS011;30477;48.224;11.470;2023-07-09T02:18:01;12.13;;;8.47;;
44750;SDS011;30477;48.224;11.470;2023-07-09T02:20:27;12.50;;;7.65;;
44750;SDS011;30477;48.224;11.470;2023-07-09T02:22:53;11.02;;;8.10;;
44750;SDS011;30477;48.224;11.470;2023-07-09T02:25:18;12.07;;;8.07;;
44750;SDS011;30477;48.224;11.470;2023-07-09T02:27:43;12.03;;;7.47;;
44750;SDS011;30477;48.224;11.470;2023-07-09T02:30:09;10.47;;;7.67;;
44750;SDS011;30477;48.224;11.470;2023-07-09T02:32:36;10.50;;;8.05;;
44750;SDS011;30477;48.224;11.470;2023-07-09T02:35:01;10.85;;;7.95;;
44750;SDS011;30477;48.224;11.470;2023-07-09T02:37:27;11.67;;;8.00;;
44750;SDS011;30477;48.224;11.470;2023-07-09T02:39:52;11.60;;;8.50;;
44750;SDS011;30477;48.224;11.470;2023-07-09T02:42:19;14.05;;;8.02;;
44750;SDS011;30477;48.224;11.470;2023-07-09T02:44:45;11.57;;;8.23;;
44750;SDS011;30477;48.224;11.470;2023-07-09T02:47:11;9.93;;;8.00;;
44750;SDS011;30477;48.224;11.470;2023-07-09T02:49:37;9.20;;;7.35;;
44750;SDS011;30477;48.224;11.470;2023-07-09T02:52:03;12.32;;;7.85;;
44750;SDS011;30477;48.224;11.470;2023-07-09T02:54:29;12.32;;;8.32;;
44750;SDS011;30477;48.224;11.470;2023-07-09T02:56:54;15.07;;;8.10;;
44750;SDS011;30477;48.224;11.470;2023-07-09T02:59:20;12.07;;;7.97;;
44750;SDS011;30477;48.224;11.470;2023-07-09T03:01:45;11.33;;;7.57;;
44750;SDS011;30477;48.224;11.470;2023-07-09T03:04:12;13.20;;;8.13;;
44750;SDS011;30477;48.224;11.470;2023-07-09T03:09:05;14.25;;;8.00;;
44750;SDS011;30477;48.224;11.470;2023-07-09T03:11:31;14.38;;;8.52;;
44750;SDS011;30477;48.224;11.470;2023-07-09T03:13:58;10.63;;;7.93;;
44750;SDS011;30477;48.224;11.470;2023-07-09T03:16:28;12.23;;;8.20;;
44750;SDS011;30477;48.224;11.470;2023-07-09T03:18:55;11.32;;;7.80;;
44750;SDS011;30477;48.224;11.470;2023-07-09T03:21:21;15.20;;;8.05;;
44750;SDS011;30477;48.224;11.470;2023-07-09T03:23:47;12.93;;;8.32;;
44750;SDS011;30477;48.224;11.470;2023-07-09T03:26:12;11.07;;;8.00;;
44750;SDS011;30477;48.224;11.470;2023-07-09T03:28:37;13.40;;;8.43;;
44750;SDS011;30477;48.224;11.470;2023-07-09T03:31:03;10.03;;;7.87;;
44750;SDS011;30477;48.224;11.470;2023-07-09T03:33:28;12.57;;;8.40;;
44750;SDS011;30477;48.224;11.470;2023-07-09T03:35:53;12.53;;;8.00;;
44750;SDS011;30477;48.224;11.470;2023-07-09T03:38:19;12.77;;;7.57;;
44750;SDS011;30477;48.224;11.470;2023-07-09T03:40:45;11.90;;;8.07;;
44750;SDS011;30477;48.224;11.470;2023-07-09T03:43:14;13.07;;;8.32;;
44750;SDS011;30477;48.224;11.470;2023-07-09T03:45:39;13.50;;;7.97;;
44750;SDS011;30477;48.224;11.470;2023-07-09T03:48:05;11.10;;;7.97;;
44750;SDS011;30477;48.224;11.470;2023-07-09T03:50:31;10.32;;;7.18;;
44750;SDS011;30477;48.224;11.470;2023-07-09T03:52:56;11.02;;;8.13;;
44750;SDS011;30477;48.224;11.470;2023-07-09T03:55:22;13.53;;;7.83;;
44750;SDS011;30477;48.224;11.470;2023-07-09T03:57:47;12.83;;;7.50;;
44750;SDS011;30477;48.224;11.470;2023-07-09T04:00:13;10.47;;;7.70;;
44750;SDS011;30477;48.224;11.470;2023-07-09T04:02:39;12.57;;;8.25;;
44750;SDS011;30477;48.224;11.470;2023-07-09T04:05:08;12.95;;;8.05;;
44750;SDS011;30477;48.224;11.470;2023-07-09T04:07:34;13.20;;;7.65;;
44750;SDS011;30477;48.224;11.470;2023-07-09T04:10:00;15.95;;;8.38;;
44750;SDS011;30477;48.224;11.470;2023-07-09T04:12:25;12.18;;;7.93;;
44750;SDS011;30477;48.224;11.470;2023-07-09T04:14:50;10.70;;;7.53;;
44750;SDS011;30477;48.224;11.470;2023-07-09T04:17:16;10.57;;;7.90;;
44750;SDS011;30477;48.224;11.470;2023-07-09T04:19:41;15.43;;;8.20;;
44750;SDS011;30477;48.224;11.470;2023-07-09T04:22:07;11.93;;;8.27;;
44750;SDS011;30477;48.224;11.470;2023-07-09T04:24:35;12.48;;;8.18;;
44750;SDS011;30477;48.224;11.470;2023-07-09T04:27:00;12.33;;;8.07;;
44750;SDS011;30477;48.224;11.470;2023-07-09T04:29:27;10.57;;;8.00;;
44750;SDS011;30477;48.224;11.470;2023-07-09T04:31:53;10.40;;;8.13;;
44750;SDS011;30477;48.224;11.470;2023-07-09T04:34:19;14.33;;;7.93;;
44750;SDS011;30477;48.224;11.470;2023-07-09T04:36:44;13.10;;;7.57;;
44750;SDS011;30477;48.224;11.470;2023-07-09T04:39:09;10.87;;;7.67;;
44750;SDS011;30477;48.224;11.470;2023-07-09T04:41:35;10.40;;;7.60;;
44750;SDS011;30477;48.224;11.470;2023-07-09T04:44:00;14.07;;;7.67;;
44750;SDS011;30477;48.224;11.470;2023-07-09T04:46:25;11.57;;;7.83;;
44750;SDS011;30477;48.224;11.470;2023-07-09T04:48:51;13.27;;;8.17;;
44750;SDS011;30477;48.224;11.470;2023-07-09T04:51:16;10.60;;;7.70;;
44750;SDS011;30477;48.224;11.470;2023-07-09T04:56:07;9.47;;;7.30;;
44750;SDS011;30477;48.224;11.470;2023-07-09T04:58:34;9.35;;;6.63;;
44750;SDS011;30477;48.224;11.470;2023-07-09T05:01:00;10.45;;;7.55;;
44750;SDS011;30477;48.224;11.470;2023-07-09T05:03:25;11.40;;;7.00;;
44750;SDS011;30477;48.224;11.470;2023-07-09T05:05:51;10.68;;;7.07;;
44750;SDS011;30477;48.224;11.470;2023-07-09T05:08:16;9.07;;;6.87;;
44750;SDS011;30477;48.224;11.470;2023-07-09T05:10:43;13.18;;;6.90;;
44750;SDS011;30477;48.224;11.470;2023-07-09T05:13:09;9.60;;;7.25;;
44750;SDS011;30477;48.224;11.470;2023-07-09T05:15:35;9.43;;;7.13;;
44750;SDS011;30477;48.224;11.470;2023-07-09T05:18:01;9.52;;;6.93;;
44750;SDS011;30477;48.224;11.470;2023-07-09T05:22:51;7.80;;;6.95;;
44750;SDS011;30477;48.224;11.470;2023-07-09T05:27:42;8.48;;;6.53;;
44750;SDS011;30477;48.224;11.470;2023-07-09T05:30:09;7.53;;;6.22;;
44750;SDS011;30477;48.224;11.470;2023-07-09T05:35:01;8.55;;;6.20;;
44750;SDS011;30477;48.224;11.470;2023-07-09T05:39:53;10.43;;;6.63;;
44750;SDS011;30477;48.224;11.470;2023-07-09T05:44:43;7.43;;;6.17;;
44750;SDS011;30477;48.224;11.470;2023-07-09T05:47:08;7.63;;;5.97;;
44750;SDS011;30477;48.224;11.470;2023-07-09T05:49:34;9.65;;;6.13;;
44750;SDS011;30477;48.224;11.470;2023-07-09T05:51:59;9.97;;;6.10;;
44750;SDS011;30477;48.224;11.470;2023-07-09T05:54:24;7.77;;;5.90;;
44750;SDS011;30477;48.224;11.470;2023-07-09T05:56:50;7.60;;;5.78;;
44750;SDS011;30477;48.224;11.470;2023-07-09T05:59:16;6.78;;;5.90;;
44750;SDS011;30477;48.224;11.470;2023-07-09T06:01:41;6.57;;;5.43;;
44750;SDS011;30477;48.224;11.470;2023-07-09T06:04:06;7.05;;;5.47;;
44750;SDS011;30477;48.224;11.470;2023-07-09T06:06:32;7.78;;;5.35;;
44750;SDS011;30477;48.224;11.470;2023-07-09T06:08:57;6.93;;;5.50;;
44750;SDS011;30477;48.224;11.470;2023-07-09T06:11:23;6.70;;;5.00;;
44750;SDS011;30477;48.224;11.470;2023-07-09T06:13:48;9.05;;;5.63;;
44750;SDS011;30477;48.224;11.470;2023-07-09T06:16:14;5.65;;;4.63;;
44750;SDS011;30477;48.224;11.470;2023-07-09T06:18:39;7.25;;;4.70;;
44750;SDS011;30477;48.224;11.470;2023-07-09T06:21:05;7.40;;;4.60;;
44750;SDS011;30477;48.224;11.470;2023-07-09T06:23:32;8.05;;;4.95;;
44750;SDS011;30477;48.224;11.470;2023-07-09T06:25:58;7.20;;;4.65;;
44750;SDS011;30477;48.224;11.470;2023-07-09T06:28:24;7.47;;;4.13;;
44750;SDS011;30477;48.224;11.470;2023-07-09T06:30:54;4.68;;;4.10;;
44750;SDS011;30477;48.224;11.470;2023-07-09T06:33:19;5.95;;;4.65;;
44750;SDS011;30477;48.224;11.470;2023-07-09T06:35:48;6.50;;;4.10;;
44750;SDS011;30477;48.224;11.470;2023-07-09T06:38:15;5.95;;;4.65;;
44750;SDS011;30477;48.224;11.470;2023-07-09T06:40:41;5.35;;;4.40;;
44750;SDS011;30477;48.224;11.470;2023-07-09T06:43:06;11.80;;;4.75;;
44750;SDS011;30477;48.224;11.470;2023-07-09T06:45:32;6.40;;;4.27;;
44750;SDS011;30477;48.224;11.470;2023-07-09T06:47:57;5.53;;;4.15;;
44750;SDS011;30477;48.224;11.470;2023-07-09T06:50:22;8.00;;;4.20;;
44750;SDS011;30477;48.224;11.470;2023-07-09T06:52:48;6.65;;;4.38;;
44750;SDS011;30477;48.224;11.470;2023-07-09T06:55:13;5.17;;;4.00;;
44750;SDS011;30477;48.224;11.470;2023-07-09T06:57:38;7.10;;;4.03;;
44750;SDS011;30477;48.224;11.470;2023-07-09T07:00:04;5.43;;;4.00;;
44750;SDS011;30477;48.224;11.470;2023-07-09T07:02:30;4.63;;;3.72;;
44750;SDS011;30477;48.224;11.470;2023-07-09T07:04:55;9.48;;;4.50;;
44750;SDS011;30477;48.224;11.470;2023-07-09T07:07:20;5.27;;;3.87;;
44750;SDS011;30477;48.224;11.470;2023-07-09T07:09:46;5.70;;;4.15;;
44750;SDS011;30477;48.224;11.470;2023-07-09T07:12:19;5.82;;;4.10;;
44750;SDS011;30477;48.224;11.470;2023-07-09T07:14:48;4.13;;;3.67;;
44750;SDS011;30477;48.224;11.470;2023-07-09T07:17:14;6.23;;;3.70;;
44750;SDS011;30477;48.224;11.470;2023-07-09T07:19:39;4.10;;;3.70;;
44750;SDS011;30477;48.224;11.470;2023-07-09T07:22:04;4.73;;;3.80;;
44750;SDS011;30477;48.224;11.470;2023-07-09T07:24:32;6.35;;;3.92;;
44750;SDS011;30477;48.224;11.470;2023-07-09T07:26:57;6.55;;;4.45;;
44750;SDS011;30477;48.224;11.470;2023-07-09T07:29:22;6.35;;;3.83;;
44750;SDS011;30477;48.224;11.470;2023-07-09T07:31:48;6.50;;;3.90;;
44750;SDS011;30477;48.224;11.470;2023-07-09T07:34:13;7.00;;;3.70;;
44750;SDS011;30477;48.224;11.470;2023-07-09T07:36:39;6.57;;;3.72;;
44750;SDS011;30477;48.224;11.470;2023-07-09T07:39:04;5.70;;;3.60;;
44750;SDS011;30477;48.224;11.470;2023-07-09T07:41:30;5.38;;;3.65;;
44750;SDS011;30477;48.224;11.470;2023-07-09T07:43:55;4.25;;;3.60;;
44750;SDS011;30477;48.224;11.470;2023-07-09T07:46:20;4.40;;;3.50;;
44750;SDS011;30477;48.224;11.470;2023-07-09T07:48:46;7.43;;;4.10;;
44750;SDS011;30477;48.224;11.470;2023-07-09T07:51:11;6.03;;;3.85;;
44750;SDS011;30477;48.224;11.470;2023-07-09T07:53:36;4.30;;;3.70;;
44750;SDS011;30477;48.224;11.470;2023-07-09T07:56:02;5.65;;;3.47;;
44750;SDS011;30477;48.224;11.470;2023-07-09T07:58:28;5.13;;;3.90;;
44750;SDS011;30477;48.224;11.470;2023-07-09T08:00:56;3.75;;;3.28;;
44750;SDS011;30477;48.224;11.470;2023-07-09T08:03:22;8.85;;;3.95;;
44750;SDS011;30477;48.224;11.470;2023-07-09T08:05:49;4.78;;;3.33;;
44750;SDS011;30477;48.224;11.470;2023-07-09T08:08:15;6.20;;;3.60;;
44750;SDS011;30477;48.224;11.470;2023-07-09T08:10:40;4.65;;;3.55;;
44750;SDS011;30477;48.224;11.470;2023-07-09T08:13:05;9.00;;;3.70;;
44750;SDS011;30477;48.224;11.470;2023-07-09T08:15:31;4.00;;;3.37;;
44750;SDS011;30477;48.224;11.470;2023-07-09T08:17:57;5.13;;;3.13;;
44750;SDS011;30477;48.224;11.470;2023-07-09T08:20:22;6.75;;;3.45;;
44750;SDS011;30477;48.224;11.470;2023-07-09T08:22:48;5.10;;;3.63;;
44750;SDS011;30477;48.224;11.470;2023-07-09T08:25:13;4.90;;;3.60;;
44750;SDS011;30477;48.224;11.470;2023-07-09T08:27:38;4.50;;;3.20;;
44750;SDS011;30477;48.224;11.470;2023-07-09T08:30:04;5.25;;;3.40;;
44750;SDS011;30477;48.224;11.470;2023-07-09T08:32:30;5.15;;;3.50;;
44750;SDS011;30477;48.224;11.470;2023-07-09T08:34:56;3.97;;;3.35;;
44750;SDS011;30477;48.224;11.470;2023-07-09T08:37:21;4.73;;;3.33;;
44750;SDS011;30477;48.224;11.470;2023-07-09T08:39:47;6.60;;;3.67;;
44750;SDS011;30477;48.224;11.470;2023-07-09T08:42:14;6.18;;;3.83;;
44750;SDS011;30477;48.224;11.470;2023-07-09T08:45:46;6.72;;;3.60;;
44750;SDS011;30477;48.224;11.470;2023-07-09T08:50:30;9.73;;;3.97;;
44750;SDS011;30477;48.224;11.470;2023-07-09T08:53:02;10.32;;;4.10;;
44750;SDS011;30477;48.224;11.470;2023-07-09T08:55:30;8.63;;;3.97;;
44750;SDS011;30477;48.224;11.470;2023-07-09T08:58:09;4.97;;;3.97;;
44750;SDS011;30477;48.224;11.470;2023-07-09T09:00:46;6.00;;;4.22;;
44750;SDS011;30477;48.224;11.470;2023-07-09T09:06:15;6.43;;;3.78;;
44750;SDS011;30477;48.224;11.470;2023-07-09T09:09:02;5.18;;;3.53;;
44750;SDS011;30477;48.224;11.470;2023-07-09T09:11:49;4.50;;;3.92;;
44750;SDS011;30477;48.224;11.470;2023-07-09T09:19:27;5.68;;;4.00;;
44750;SDS011;30477;48.224;11.470;2023-07-09T09:22:02;5.03;;;3.80;;
44750;SDS011;30477;48.224;11.470;2023-07-09T09:27:21;5.13;;;3.75;;
44750;SDS011;30477;48.224;11.470;2023-07-09T09:29:47;9.03;;;4.00;;
44750;SDS011;30477;48.224;11.470;2023-07-09T09:32:34;6.27;;;3.80;;
44750;SDS011;30477;48.224;11.470;2023-07-09T09:35:13;4.07;;;3.47;;
44750;SDS011;30477;48.224;11.470;2023-07-09T09:37:40;9.88;;;4.75;;
44750;SDS011;30477;48.224;11.470;2023-07-09T09:40:09;12.95;;;5.88;;
44750;SDS011;30477;48.224;11.470;2023-07-09T09:42:35;12.55;;;4.55;;
44750;SDS011;30477;48.224;11.470;2023-07-09T09:45:00;4.67;;;3.83;;
44750;SDS011;30477;48.224;11.470;2023-07-09T09:47:26;8.00;;;4.20;;
44750;SDS011;30477;48.224;11.470;2023-07-09T09:49:53;7.90;;;4.15;;
44750;SDS011;30477;48.224;11.470;2023-07-09T09:52:19;5.70;;;3.78;;
44750;SDS011;30477;48.224;11.470;2023-07-09T09:55:01;4.88;;;3.72;;
44750;SDS011;30477;48.224;11.470;2023-07-09T09:57:33;6.78;;;3.65;;
44750;SDS011;30477;48.224;11.470;2023-07-09T09:59:59;6.73;;;3.70;;
44750;SDS011;30477;48.224;11.470;2023-07-09T10:02:24;7.00;;;4.03;;
44750;SDS011;30477;48.224;11.470;2023-07-09T10:04:50;5.03;;;3.67;;
44750;SDS011;30477;48.224;11.470;2023-07-09T10:09:51;7.47;;;4.07;;
44750;SDS011;30477;48.224;11.470;2023-07-09T10:15:17;7.75;;;4.50;;
44750;SDS011;30477;48.224;11.470;2023-07-09T10:18:02;8.63;;;4.25;;
44750;SDS011;30477;48.224;11.470;2023-07-09T10:20:42;6.63;;;4.60;;
44750;SDS011;30477;48.224;11.470;2023-07-09T10:32:04;5.00;;;4.32;;
44750;SDS011;30477;48.224;11.470;2023-07-09T10:34:45;6.95;;;4.47;;
44750;SDS011;30477;48.224;11.470;2023-07-09T10:40:12;5.38;;;4.03;;
44750;SDS011;30477;48.224;11.470;2023-07-09T10:42:42;6.10;;;4.22;;
44750;SDS011;30477;48.224;11.470;2023-07-09T10:45:12;5.60;;;4.20;;
44750;SDS011;30477;48.224;11.470;2023-07-09T10:47:41;4.75;;;3.85;;
44750;SDS011;30477;48.224;11.470;2023-07-09T10:50:12;5.85;;;4.22;;
44750;SDS011;30477;48.224;11.470;2023-07-09T10:52:44;6.97;;;4.53;;
44750;SDS011;30477;48.224;11.470;2023-07-09T10:55:21;6.32;;;4.40;;
44750;SDS011;30477;48.224;11.470;2023-07-09T10:58:04;25.23;;;16.33;;
44750;SDS011;30477;48.224;11.470;2023-07-09T11:00:39;7.75;;;5.97;;
44750;SDS011;30477;48.224;11.470;2023-07-09T11:03:12;9.43;;;8.07;;
44750;SDS011;30477;48.224;11.470;2023-07-09T11:05:43;7.47;;;5.88;;
44750;SDS011;30477;48.224;11.470;2023-07-09T11:11:13;11.38;;;6.30;;
44750;SDS011;30477;48.224;11.470;2023-07-09T11:13:41;6.07;;;4.10;;
44750;SDS011;30477;48.224;11.470;2023-07-09T11:16:12;30.02;;;26.80;;
44750;SDS011;30477;48.224;11.470;2023-07-09T11:18:41;6.68;;;4.88;;
44750;SDS011;30477;48.224;11.470;2023-07-09T11:21:19;11.82;;;6.65;;
44750;SDS011;30477;48.224;11.470;2023-07-09T11:23:52;12.32;;;11.13;;
44750;SDS011;30477;48.224;11.470;2023-07-09T11:26:26;23.15;;;14.65;;
44750;SDS011;30477;48.224;11.470;2023-07-09T11:29:11;7.75;;;4.55;;
44750;SDS011;30477;48.224;11.470;2023-07-09T11:31:41;11.80;;;9.43;;
44750;SDS011;30477;48.224;11.470;2023-07-09T11:42:22;5.13;;;3.95;;
44750;SDS011;30477;48.224;11.470;2023-07-09T11:45:11;8.52;;;4.57;;
44750;SDS011;30477;48.224;11.470;2023-07-09T11:47:45;6.22;;;4.47;;
44750;SDS011;30477;48.224;11.470;2023-07-09T11:50:27;7.75;;;5.72;;
44750;SDS011;30477;48.224;11.470;2023-07-09T11:52:55;7.00;;;4.25;;
44750;SDS011;30477;48.224;11.470;2023-07-09T11:58:09;7.57;;;4.88;;
44750;SDS011;30477;48.224;11.470;2023-07-09T12:00:37;9.50;;;3.83;;
44750;SDS011;30477;48.224;11.470;2023-07-09T12:03:10;7.45;;;3.70;;
44750;SDS011;30477;48.224;11.470;2023-07-09T12:05:41;5.97;;;4.13;;
44750;SDS011;30477;48.224;11.470;2023-07-09T12:08:14;6.50;;;3.80;;
44750;SDS011;30477;48.224;11.470;2023-07-09T12:10:41;6.70;;;4.47;;
44750;SDS011;30477;48.224;11.470;2023-07-09T12:13:08;8.80;;;3.70;;
44750;SDS011;30477;48.224;11.470;2023-07-09T12:15:36;8.45;;;4.15;;
44750;SDS011;30477;48.224;11.470;2023-07-09T12:18:09;9.20;;;3.95;;
44750;SDS011;30477;48.224;11.470;2023-07-09T12:20:36;6.95;;;4.20;;
44750;SDS011;30477;48.224;11.470;2023-07-09T12:25:54;9.55;;;4.45;;
44750;SDS011;30477;48.224;11.470;2023-07-09T12:28:20;11.02;;;4.28;;
44750;SDS011;30477;48.224;11.470;2023-07-09T12:30:51;6.38;;;4.35;;
44750;SDS011;30477;48.224;11.470;2023-07-09T12:33:21;6.35;;;4.18;;
44750;SDS011;30477;48.224;11.470;2023-07-09T12:35:49;6.38;;;3.90;;
44750;SDS011;30477;48.224;11.470;2023-07-09T12:38:20;5.97;;;4.22;;
44750;SDS011;30477;48.224;11.470;2023-07-09T12:40:48;6.78;;;4.43;;
44750;SDS011;30477;48.224;11.470;2023-07-09T12:43:16;8.77;;;4.00;;
44750;SDS011;30477;48.224;11.470;2023-07-09T12:45:48;5.95;;;4.18;;
44750;SDS011;30477;48.224;11.470;2023-07-09T12:48:13;6.85;;;4.25;;
44750;SDS011;30477;48.224;11.470;2023-07-09T12:50:39;11.93;;;4.40;;
44750;SDS011;30477;48.224;11.470;2023-07-09T12:53:12;8.23;;;4.30;;
44750;SDS011;30477;48.224;11.470;2023-07-09T12:55:40;7.87;;;4.60;;
44750;SDS011;30477;48.224;11.470;2023-07-09T12:58:19;8.10;;;4.55;;
44750;SDS011;30477;48.224;11.470;2023-07-09T13:00:50;6.47;;;4.35;;
44750;SDS011;30477;48.224;11.470;2023-07-09T13:03:21;6.10;;;4.07;;
44750;SDS011;30477;48.224;11.470;2023-07-09T13:05:54;8.65;;;4.30;;
44750;SDS011;30477;48.224;11.470;2023-07-09T13:08:24;7.75;;;4.20;;
44750;SDS011;30477;48.224;11.470;2023-07-09T13:10:54;6.95;;;3.97;;
44750;SDS011;30477;48.224;11.470;2023-07-09T13:13:21;6.07;;;4.65;;
44750;SDS011;30477;48.224;11.470;2023-07-09T13:15:49;8.15;;;4.50;;
44750;SDS011;30477;48.224;11.470;2023-07-09T13:18:21;7.40;;;4.45;;
44750;SDS011;30477;48.224;11.470;2023-07-09T13:20:47;6.05;;;4.20;;
44750;SDS011;30477;48.224;11.470;2023-07-09T13:23:17;8.93;;;4.30;;
44750;SDS011;30477;48.224;11.470;2023-07-09T13:25:44;6.88;;;4.30;;
44750;SDS011;30477;48.224;11.470;2023-07-09T13:28:13;5.80;;;4.10;;
44750;SDS011;30477;48.224;11.470;2023-07-09T13:30:57;5.18;;;3.70;;
44750;SDS011;30477;48.224;11.470;2023-07-09T13:33:24;6.55;;;4.18;;
44750;SDS011;30477;48.224;11.470;2023-07-09T13:35:49;5.70;;;3.97;;
44750;SDS011;30477;48.224;11.470;2023-07-09T13:38:18;8.75;;;4.38;;
44750;SDS011;30477;48.224;11.470;2023-07-09T13:40:46;7.18;;;3.85;;
44750;SDS011;30477;48.224;11.470;2023-07-09T13:46:09;5.68;;;4.30;;
44750;SDS011;30477;48.224;11.470;2023-07-09T13:48:35;5.72;;;3.72;;
44750;SDS011;30477;48.224;11.470;2023-07-09T13:51:10;5.93;;;3.90;;
44750;SDS011;30477;48.224;11.470;2023-07-09T13:53:45;8.25;;;4.90;;
44750;SDS011;30477;48.224;11.470;2023-07-09T13:56:13;8.45;;;4.18;;
44750;SDS011;30477;48.224;11.470;2023-07-09T13:58:39;7.88;;;4.18;;
44750;SDS011;30477;48.224;11.470;2023-07-09T14:01:12;6.07;;;3.85;;
44750;SDS011;30477;48.224;11.470;2023-07-09T14:03:48;4.78;;;3.65;;
44750;SDS011;30477;48.224;11.470;2023-07-09T14:06:15;7.55;;;4.10;;
44750;SDS011;30477;48.224;11.470;2023-07-09T14:08:42;9.27;;;4.60;;
44750;SDS011;30477;48.224;11.470;2023-07-09T14:11:09;7.00;;;4.15;;
44750;SDS011;30477;48.224;11.470;2023-07-09T14:13:36;7.38;;;4.30;;
44750;SDS011;30477;48.224;11.470;2023-07-09T14:16:02;5.40;;;3.72;;
44750;SDS011;30477;48.224;11.470;2023-07-09T14:18:28;7.63;;;4.13;;
44750;SDS011;30477;48.224;11.470;2023-07-09T14:20:53;9.10;;;4.32;;
44750;SDS011;30477;48.224;11.470;2023-07-09T14:23:19;9.43;;;4.43;;
44750;SDS011;30477;48.224;11.470;2023-07-09T14:25:45;7.20;;;4.07;;
44750;SDS011;30477;48.224;11.470;2023-07-09T14:28:15;6.28;;;3.38;;
44750;SDS011;30477;48.224;11.470;2023-07-09T14:30:42;7.82;;;4.13;;
44750;SDS011;30477;48.224;11.470;2023-07-09T14:33:28;8.43;;;4.07;;
44750;SDS011;30477;48.224;11.470;2023-07-09T14:35:53;8.45;;;3.75;;
44750;SDS011;30477;48.224;11.470;2023-07-09T14:38:22;5.28;;;3.63;;
44750;SDS011;30477;48.224;11.470;2023-07-09T14:40:50;6.43;;;3.47;;
44750;SDS011;30477;48.224;11.470;2023-07-09T14:43:21;7.97;;;4.15;;
44750;SDS011;30477;48.224;11.470;2023-07-09T14:45:47;7.05;;;3.75;;
44750;SDS011;30477;48.224;11.470;2023-07-09T14:48:16;6.53;;;3.65;;
44750;SDS011;30477;48.224;11.470;2023-07-09T14:50:44;10.15;;;4.00;;
44750;SDS011;30477;48.224;11.470;2023-07-09T14:53:16;6.28;;;3.80;;
44750;SDS011;30477;48.224;11.470;2023-07-09T14:55:46;5.75;;;3.90;;
44750;SDS011;30477;48.224;11.470;2023-07-09T14:58:16;6.30;;;3.85;;
44750;SDS011;30477;48.224;11.470;2023-07-09T15:00:43;7.07;;;3.78;;
44750;SDS011;30477;48.224;11.470;2023-07-09T15:03:11;7.75;;;3.83;;
44750;SDS011;30477;48.224;11.470;2023-07-09T15:05:43;5.85;;;3.78;;
44750;SDS011;30477;48.224;11.470;2023-07-09T15:08:15;6.17;;;3.43;;
44750;SDS011;30477;48.224;11.470;2023-07-09T15:10:43;8.20;;;3.65;;
44750;SDS011;30477;48.224;11.470;2023-07-09T15:13:42;8.15;;;3.83;;
44750;SDS011;30477;48.224;11.470;2023-07-09T15:16:02;6.50;;;3.45;;
44750;SDS011;30477;48.224;11.470;2023-07-09T15:18:28;5.78;;;3.65;;
44750;SDS011;30477;48.224;11.470;2023-07-09T15:20:57;6.47;;;3.45;;
44750;SDS011;30477;48.224;11.470;2023-07-09T15:23:25;7.60;;;3.38;;
44750;SDS011;30477;48.224;11.470;2023-07-09T15:25:52;4.88;;;3.47;;
44750;SDS011;30477;48.224;11.470;2023-07-09T15:28:18;5.13;;;3.13;;
44750;SDS011;30477;48.224;11.470;2023-07-09T15:30:43;6.97;;;3.40;;
44750;SDS011;30477;48.224;11.470;2023-07-09T15:33:17;7.63;;;3.60;;
44750;SDS011;30477;48.224;11.470;2023-07-09T15:35:45;10.27;;;3.78;;
44750;SDS011;30477;48.224;11.470;2023-07-09T15:38:33;6.22;;;3.58;;
44750;SDS011;30477;48.224;11.470;2023-07-09T15:40:59;8.00;;;3.78;;
44750;SDS011;30477;48.224;11.470;2023-07-09T15:43:25;8.15;;;3.63;;
44750;SDS011;30477;48.224;11.470;2023-07-09T15:45:51;6.70;;;3.63;;
44750;SDS011;30477;48.224;11.470;2023-07-09T15:48:26;5.80;;;3.80;;
44750;SDS011;30477;48.224;11.470;2023-07-09T15:50:59;6.15;;;3.92;;
44750;SDS011;30477;48.224;11.470;2023-07-09T15:53:25;7.88;;;3.67;;